sensor_id;sensor_type;location;lat;lon;timestamp;temperature;humidity
75217;HTU21D;63800;51.972;5.682;2023-09-07T00:00:39;20.72;118.99
75217;HTU21D;63800;51.972;5.682;2023-09-07T00:03:04;20.71;118.99
75217;HTU21D;63800;51.972;5.682;2023-09-07T00:05:31;20.71;118.99
75217;HTU21D;63800;51.972;5.682;2023-09-07T00:07:56;20.69;118.99
75217;HTU21D;63800;51.972;5.682;2023-09-07T00:10:22;20.68;118.99
75217;HTU21D;63800;51.972;5.682;2023-09-07T00:12:48;20.70;118.99
75217;HTU21D;63800;51.972;5.682;2023-09-07T00:15:13;20.72;118.99
75217;HTU21D;63800;51.972;5.682;2023-09-07T00:17:39;20.64;118.99
75217;HTU21D;63800;51.972;5.682;2023-09-07T00:20:05;20.69;118.99
75217;HTU21D;63800;51.972;5.682;2023-09-07T00:22:37;20.68;118.99
75217;HTU21D;63800;51.972;5.682;2023-09-07T00:25:03;20.63;118.99
75217;HTU21D;63800;51.972;5.682;2023-09-07T00:27:29;20.58;118.99
75217;HTU21D;63800;51.972;5.682;2023-09-07T00:29:55;20.60;118.99
75217;HTU21D;63800;51.972;5.682;2023-09-07T00:32:20;20.51;118.99
75217;HTU21D;63800;51.972;5.682;2023-09-07T00:34:46;20.51;118.99
75217;HTU21D;63800;51.972;5.682;2023-09-07T00:37:11;20.51;118.99
75217;HTU21D;63800;51.972;5.682;2023-09-07T00:39:37;20.47;118.99
75217;HTU21D;63800;51.972;5.682;2023-09-07T00:42:03;20.47;118.99
75217;HTU21D;63800;51.972;5.682;2023-09-07T00:44:29;20.45;118.99
75217;HTU21D;63800;51.972;5.682;2023-09-07T00:46:56;20.44;118.99
75217;HTU21D;63800;51.972;5.682;2023-09-07T00:49:22;20.40;118.99
75217;HTU21D;63800;51.972;5.682;2023-09-07T00:51:48;20.56;118.99
75217;HTU21D;63800;51.972;5.682;2023-09-07T00:54:13;20.46;118.99
75217;HTU21D;63800;51.972;5.682;2023-09-07T00:56:40;20.46;118.99
75217;HTU21D;63800;51.972;5.682;2023-09-07T00:59:07;20.35;118.99
75217;HTU21D;63800;51.972;5.682;2023-09-07T01:01:33;20.33;118.99
75217;HTU21D;63800;51.972;5.682;2023-09-07T01:03:58;20.29;118.99
75217;HTU21D;63800;51.972;5.682;2023-09-07T01:06:30;20.28;118.99
75217;HTU21D;63800;51.972;5.682;2023-09-07T01:09:02;20.30;118.99
75217;HTU21D;63800;51.972;5.682;2023-09-07T01:11:35;20.28;118.99
75217;HTU21D;63800;51.972;5.682;2023-09-07T01:14:01;20.25;118.99
75217;HTU21D;63800;51.972;5.682;2023-09-07T01:16:29;20.27;118.99
75217;HTU21D;63800;51.972;5.682;2023-09-07T01:18:55;20.22;118.99
75217;HTU21D;63800;51.972;5.682;2023-09-07T01:21:22;20.31;118.99
75217;HTU21D;63800;51.972;5.682;2023-09-07T01:23:48;20.16;118.99
75217;HTU21D;63800;51.972;5.682;2023-09-07T01:26:14;20.16;118.99
75217;HTU21D;63800;51.972;5.682;2023-09-07T01:28:40;20.19;118.99
75217;HTU21D;63800;51.972;5.682;2023-09-07T01:31:05;20.13;118.99
75217;HTU21D;63800;51.972;5.682;2023-09-07T01:33:31;20.10;118.99
75217;HTU21D;63800;51.972;5.682;2023-09-07T01:35:57;20.07;118.99
75217;HTU21D;63800;51.972;5.682;2023-09-07T01:38:22;19.97;118.99
75217;HTU21D;63800;51.972;5.682;2023-09-07T01:40:48;19.98;118.99
75217;HTU21D;63800;51.972;5.682;2023-09-07T01:43:14;19.88;118.99
75217;HTU21D;63800;51.972;5.682;2023-09-07T01:45:39;19.85;118.99
75217;HTU21D;63800;51.972;5.682;2023-09-07T01:48:12;19.90;118.99
75217;HTU21D;63800;51.972;5.682;2023-09-07T01:50:37;19.89;118.99
75217;HTU21D;63800;51.972;5.682;2023-09-07T01:53:03;19.94;118.99
75217;HTU21D;63800;51.972;5.682;2023-09-07T01:55:30;19.90;118.99
75217;HTU21D;63800;51.972;5.682;2023-09-07T01:57:55;19.88;118.99
75217;HTU21D;63800;51.972;5.682;2023-09-07T02:00:21;19.84;118.99
75217;HTU21D;63800;51.972;5.682;2023-09-07T02:02:46;19.87;118.99
75217;HTU21D;63800;51.972;5.682;2023-09-07T02:05:12;19.87;118.99
75217;HTU21D;63800;51.972;5.682;2023-09-07T02:07:37;19.82;118.99
75217;HTU21D;63800;51.972;5.682;2023-09-07T02:10:03;19.86;118.99
75217;HTU21D;63800;51.972;5.682;2023-09-07T02:12:29;19.86;118.99
75217;HTU21D;63800;51.972;5.682;2023-09-07T02:14:55;19.88;118.99
75217;HTU21D;63800;51.972;5.682;2023-09-07T02:17:20;19.81;118.99
75217;HTU21D;63800;51.972;5.682;2023-09-07T02:19:46;19.83;118.99
75217;HTU21D;63800;51.972;5.682;2023-09-07T02:22:12;19.85;118.99
75217;HTU21D;63800;51.972;5.682;2023-09-07T02:24:37;19.80;118.99
75217;HTU21D;63800;51.972;5.682;2023-09-07T02:27:03;19.79;118.99
75217;HTU21D;63800;51.972;5.682;2023-09-07T02:29:28;19.71;118.99
75217;HTU21D;63800;51.972;5.682;2023-09-07T02:31:54;19.72;118.99
75217;HTU21D;63800;51.972;5.682;2023-09-07T02:34:19;19.80;118.99
75217;HTU21D;63800;51.972;5.682;2023-09-07T02:36:45;19.82;118.99
75217;HTU21D;63800;51.972;5.682;2023-09-07T02:39:10;19.84;118.99
75217;HTU21D;63800;51.972;5.682;2023-09-07T02:41:37;19.87;118.99
75217;HTU21D;63800;51.972;5.682;2023-09-07T02:44:04;19.79;118.99
75217;HTU21D;63800;51.972;5.682;2023-09-07T02:46:29;19.74;118.99
75217;HTU21D;63800;51.972;5.682;2023-09-07T02:48:58;19.67;118.99
75217;HTU21D;63800;51.972;5.682;2023-09-07T02:51:24;19.68;118.99
75217;HTU21D;63800;51.972;5.682;2023-09-07T02:53:50;19.54;118.99
75217;HTU21D;63800;51.972;5.682;2023-09-07T02:56:16;19.59;118.99
75217;HTU21D;63800;51.972;5.682;2023-09-07T02:58:42;19.53;118.99
75217;HTU21D;63800;51.972;5.682;2023-09-07T03:01:07;19.56;118.99
75217;HTU21D;63800;51.972;5.682;2023-09-07T03:03:36;19.56;118.99
75217;HTU21D;63800;51.972;5.682;2023-09-07T03:06:13;19.54;118.99
75217;HTU21D;63800;51.972;5.682;2023-09-07T03:08:39;19.32;118.99
75217;HTU21D;63800;51.972;5.682;2023-09-07T03:11:06;19.39;118.99
75217;HTU21D;63800;51.972;5.682;2023-09-07T03:13:32;19.32;118.99
75217;HTU21D;63800;51.972;5.682;2023-09-07T03:15:58;19.42;118.99
75217;HTU21D;63800;51.972;5.682;2023-09-07T03:18:24;19.30;118.99
75217;HTU21D;63800;51.972;5.682;2023-09-07T03:20:50;19.26;118.99
75217;HTU21D;63800;51.972;5.682;2023-09-07T03:23:16;19.28;118.99
75217;HTU21D;63800;51.972;5.682;2023-09-07T03:25:41;19.27;118.99
75217;HTU21D;63800;51.972;5.682;2023-09-07T03:28:07;19.25;118.99
75217;HTU21D;63800;51.972;5.682;2023-09-07T03:30:33;19.23;118.99
75217;HTU21D;63800;51.972;5.682;2023-09-07T03:32:58;19.15;118.99
75217;HTU21D;63800;51.972;5.682;2023-09-07T03:35:24;19.23;118.99
75217;HTU21D;63800;51.972;5.682;2023-09-07T03:37:49;19.16;118.99
75217;HTU21D;63800;51.972;5.682;2023-09-07T03:40:15;19.16;118.99
75217;HTU21D;63800;51.972;5.682;2023-09-07T03:42:40;19.14;118.99
75217;HTU21D;63800;51.972;5.682;2023-09-07T03:45:06;19.16;118.99
75217;HTU21D;63800;51.972;5.682;2023-09-07T03:47:32;19.18;118.99
75217;HTU21D;63800;51.972;5.682;2023-09-07T03:49:58;19.17;118.99
75217;HTU21D;63800;51.972;5.682;2023-09-07T03:52:24;19.12;118.99
75217;HTU21D;63800;51.972;5.682;2023-09-07T03:54:53;19.12;118.99
75217;HTU21D;63800;51.972;5.682;2023-09-07T03:57:19;19.12;118.99
75217;HTU21D;63800;51.972;5.682;2023-09-07T03:59:45;19.14;118.99
75217;HTU21D;63800;51.972;5.682;2023-09-07T04:02:11;19.03;118.99
75217;HTU21D;63800;51.972;5.682;2023-09-07T04:04:38;19.00;118.99
75217;HTU21D;63800;51.972;5.682;2023-09-07T04:07:04;19.01;118.99
75217;HTU21D;63800;51.972;5.682;2023-09-07T04:09:29;19.03;118.99
75217;HTU21D;63800;51.972;5.682;2023-09-07T04:11:55;18.96;118.99
75217;HTU21D;63800;51.972;5.682;2023-09-07T04:14:20;18.91;118.99
75217;HTU21D;63800;51.972;5.682;2023-09-07T04:16:45;18.87;118.99
75217;HTU21D;63800;51.972;5.682;2023-09-07T04:19:11;18.86;118.99
75217;HTU21D;63800;51.972;5.682;2023-09-07T04:21:37;18.93;118.99
75217;HTU21D;63800;51.972;5.682;2023-09-07T04:24:04;19.00;118.99
75217;HTU21D;63800;51.972;5.682;2023-09-07T04:26:29;19.09;118.99
75217;HTU21D;63800;51.972;5.682;2023-09-07T04:28:55;19.09;118.99
75217;HTU21D;63800;51.972;5.682;2023-09-07T04:31:20;19.15;118.99
75217;HTU21D;63800;51.972;5.682;2023-09-07T04:33:46;19.02;118.99
75217;HTU21D;63800;51.972;5.682;2023-09-07T04:36:13;18.94;118.99
75217;HTU21D;63800;51.972;5.682;2023-09-07T04:38:40;18.88;118.99
75217;HTU21D;63800;51.972;5.682;2023-09-07T04:41:10;18.82;118.99
75217;HTU21D;63800;51.972;5.682;2023-09-07T04:43:37;18.81;118.99
75217;HTU21D;63800;51.972;5.682;2023-09-07T04:46:03;18.83;118.99
75217;HTU21D;63800;51.972;5.682;2023-09-07T04:48:29;18.85;118.99
75217;HTU21D;63800;51.972;5.682;2023-09-07T04:51:12;18.88;118.99
75217;HTU21D;63800;51.972;5.682;2023-09-07T04:53:39;18.83;118.99
75217;HTU21D;63800;51.972;5.682;2023-09-07T04:56:06;18.81;118.99
75217;HTU21D;63800;51.972;5.682;2023-09-07T04:58:32;18.84;118.99
75217;HTU21D;63800;51.972;5.682;2023-09-07T05:01:09;18.83;118.99
75217;HTU21D;63800;51.972;5.682;2023-09-07T05:03:35;18.82;118.99
75217;HTU21D;63800;51.972;5.682;2023-09-07T05:06:01;18.78;118.99
75217;HTU21D;63800;51.972;5.682;2023-09-07T05:08:28;18.83;118.99
75217;HTU21D;63800;51.972;5.682;2023-09-07T05:10:58;18.80;118.99
75217;HTU21D;63800;51.972;5.682;2023-09-07T05:13:25;18.87;118.99
75217;HTU21D;63800;51.972;5.682;2023-09-07T05:15:52;18.81;118.99
75217;HTU21D;63800;51.972;5.682;2023-09-07T05:18:18;18.82;118.99
75217;HTU21D;63800;51.972;5.682;2023-09-07T05:20:44;18.72;118.99
75217;HTU21D;63800;51.972;5.682;2023-09-07T05:23:20;18.84;118.99
75217;HTU21D;63800;51.972;5.682;2023-09-07T05:25:50;18.76;118.99
75217;HTU21D;63800;51.972;5.682;2023-09-07T05:28:18;18.83;118.99
75217;HTU21D;63800;51.972;5.682;2023-09-07T05:30:43;18.85;118.99
75217;HTU21D;63800;51.972;5.682;2023-09-07T05:33:10;18.77;118.99
75217;HTU21D;63800;51.972;5.682;2023-09-07T05:35:36;18.82;118.99
75217;HTU21D;63800;51.972;5.682;2023-09-07T05:38:03;18.78;118.99
75217;HTU21D;63800;51.972;5.682;2023-09-07T05:40:29;18.82;118.99
75217;HTU21D;63800;51.972;5.682;2023-09-07T05:42:54;18.78;118.99
75217;HTU21D;63800;51.972;5.682;2023-09-07T05:45:20;18.86;118.99
75217;HTU21D;63800;51.972;5.682;2023-09-07T05:47:46;18.88;118.99
75217;HTU21D;63800;51.972;5.682;2023-09-07T05:50:11;18.84;118.99
75217;HTU21D;63800;51.972;5.682;2023-09-07T05:52:37;18.80;118.99
75217;HTU21D;63800;51.972;5.682;2023-09-07T05:55:02;18.78;118.99
75217;HTU21D;63800;51.972;5.682;2023-09-07T05:57:28;18.67;118.99
75217;HTU21D;63800;51.972;5.682;2023-09-07T05:59:53;18.93;118.99
75217;HTU21D;63800;51.972;5.682;2023-09-07T06:02:19;18.91;118.99
75217;HTU21D;63800;51.972;5.682;2023-09-07T06:04:44;19.23;118.99
75217;HTU21D;63800;51.972;5.682;2023-09-07T06:07:10;19.25;118.99
75217;HTU21D;63800;51.972;5.682;2023-09-07T06:09:35;19.36;118.99
75217;HTU21D;63800;51.972;5.682;2023-09-07T06:12:02;19.14;118.99
75217;HTU21D;63800;51.972;5.682;2023-09-07T06:14:28;19.06;118.99
75217;HTU21D;63800;51.972;5.682;2023-09-07T06:16:53;19.16;118.99
75217;HTU21D;63800;51.972;5.682;2023-09-07T06:19:19;19.06;118.99
75217;HTU21D;63800;51.972;5.682;2023-09-07T06:21:45;19.15;118.99
75217;HTU21D;63800;51.972;5.682;2023-09-07T06:24:10;19.05;118.99
75217;HTU21D;63800;51.972;5.682;2023-09-07T06:26:36;19.10;118.99
75217;HTU21D;63800;51.972;5.682;2023-09-07T06:29:01;19.13;118.99
75217;HTU21D;63800;51.972;5.682;2023-09-07T06:31:27;19.09;118.99
75217;HTU21D;63800;51.972;5.682;2023-09-07T06:33:52;19.15;118.99
75217;HTU21D;63800;51.972;5.682;2023-09-07T06:36:18;19.16;118.99
75217;HTU21D;63800;51.972;5.682;2023-09-07T06:38:43;19.21;118.99
75217;HTU21D;63800;51.972;5.682;2023-09-07T06:41:08;19.20;118.99
75217;HTU21D;63800;51.972;5.682;2023-09-07T06:43:34;19.23;118.99
75217;HTU21D;63800;51.972;5.682;2023-09-07T06:46:05;19.33;118.99
75217;HTU21D;63800;51.972;5.682;2023-09-07T06:48:30;19.36;118.99
75217;HTU21D;63800;51.972;5.682;2023-09-07T06:51:05;19.38;118.99
75217;HTU21D;63800;51.972;5.682;2023-09-07T06:53:31;19.38;118.99
75217;HTU21D;63800;51.972;5.682;2023-09-07T06:55:57;19.37;118.99
75217;HTU21D;63800;51.972;5.682;2023-09-07T06:58:23;19.50;118.99
75217;HTU21D;63800;51.972;5.682;2023-09-07T07:00:49;19.52;118.99
75217;HTU21D;63800;51.972;5.682;2023-09-07T07:03:14;19.63;118.99
75217;HTU21D;63800;51.972;5.682;2023-09-07T07:05:40;19.69;118.99
75217;HTU21D;63800;51.972;5.682;2023-09-07T07:08:05;19.86;118.99
75217;HTU21D;63800;51.972;5.682;2023-09-07T07:10:30;19.86;118.99
75217;HTU21D;63800;51.972;5.682;2023-09-07T07:12:56;19.88;118.99
75217;HTU21D;63800;51.972;5.682;2023-09-07T07:15:21;19.85;118.99
75217;HTU21D;63800;51.972;5.682;2023-09-07T07:17:47;19.87;118.99
75217;HTU21D;63800;51.972;5.682;2023-09-07T07:20:12;20.01;118.99
75217;HTU21D;63800;51.972;5.682;2023-09-07T07:22:38;19.97;118.99
75217;HTU21D;63800;51.972;5.682;2023-09-07T07:25:03;20.02;118.99
75217;HTU21D;63800;51.972;5.682;2023-09-07T07:27:31;20.00;118.99
75217;HTU21D;63800;51.972;5.682;2023-09-07T07:29:57;20.07;118.99
75217;HTU21D;63800;51.972;5.682;2023-09-07T07:32:22;20.24;118.99
75217;HTU21D;63800;51.972;5.682;2023-09-07T07:34:48;20.22;118.99
75217;HTU21D;63800;51.972;5.682;2023-09-07T07:37:13;20.25;118.99
75217;HTU21D;63800;51.972;5.682;2023-09-07T07:39:38;20.34;118.99
75217;HTU21D;63800;51.972;5.682;2023-09-07T07:42:04;20.40;118.99
75217;HTU21D;63800;51.972;5.682;2023-09-07T07:44:31;20.56;118.99
75217;HTU21D;63800;51.972;5.682;2023-09-07T07:46:56;20.63;118.99
75217;HTU21D;63800;51.972;5.682;2023-09-07T07:49:22;20.59;118.99
75217;HTU21D;63800;51.972;5.682;2023-09-07T07:51:47;20.71;118.99
75217;HTU21D;63800;51.972;5.682;2023-09-07T07:54:13;20.73;118.99
75217;HTU21D;63800;51.972;5.682;2023-09-07T07:56:39;20.74;118.99
75217;HTU21D;63800;51.972;5.682;2023-09-07T07:59:04;20.75;118.99
75217;HTU21D;63800;51.972;5.682;2023-09-07T08:01:30;20.78;118.99
75217;HTU21D;63800;51.972;5.682;2023-09-07T08:03:55;20.86;118.99
75217;HTU21D;63800;51.972;5.682;2023-09-07T08:06:21;20.79;118.99
75217;HTU21D;63800;51.972;5.682;2023-09-07T08:08:46;20.92;118.99
75217;HTU21D;63800;51.972;5.682;2023-09-07T08:11:12;20.95;118.99
75217;HTU21D;63800;51.972;5.682;2023-09-07T08:13:39;20.99;118.99
75217;HTU21D;63800;51.972;5.682;2023-09-07T08:16:05;21.03;118.99
75217;HTU21D;63800;51.972;5.682;2023-09-07T08:18:33;21.03;118.99
75217;HTU21D;63800;51.972;5.682;2023-09-07T08:20:59;21.08;118.99
75217;HTU21D;63800;51.972;5.682;2023-09-07T08:23:25;21.13;118.99
75217;HTU21D;63800;51.972;5.682;2023-09-07T08:25:53;21.29;118.99
75217;HTU21D;63800;51.972;5.682;2023-09-07T08:28:19;21.31;118.99
75217;HTU21D;63800;51.972;5.682;2023-09-07T08:30:49;21.34;118.99
75217;HTU21D;63800;51.972;5.682;2023-09-07T08:33:15;21.47;118.99
75217;HTU21D;63800;51.972;5.682;2023-09-07T08:35:40;21.52;118.99
75217;HTU21D;63800;51.972;5.682;2023-09-07T08:38:10;21.55;118.99
75217;HTU21D;63800;51.972;5.682;2023-09-07T08:40:36;21.51;118.99
75217;HTU21D;63800;51.972;5.682;2023-09-07T08:43:04;21.67;118.99
75217;HTU21D;63800;51.972;5.682;2023-09-07T08:45:36;21.69;118.99
75217;HTU21D;63800;51.972;5.682;2023-09-07T08:48:03;21.74;118.99
75217;HTU21D;63800;51.972;5.682;2023-09-07T08:50:30;21.78;118.99
75217;HTU21D;63800;51.972;5.682;2023-09-07T08:52:56;21.89;118.99
75217;HTU21D;63800;51.972;5.682;2023-09-07T08:55:25;22.06;118.99
75217;HTU21D;63800;51.972;5.682;2023-09-07T08:57:51;22.21;118.99
75217;HTU21D;63800;51.972;5.682;2023-09-07T09:00:16;22.19;118.99
75217;HTU21D;63800;51.972;5.682;2023-09-07T09:02:42;22.24;118.99
75217;HTU21D;63800;51.972;5.682;2023-09-07T09:05:09;22.32;118.99
75217;HTU21D;63800;51.972;5.682;2023-09-07T09:07:35;22.37;118.99
75217;HTU21D;63800;51.972;5.682;2023-09-07T09:10:08;22.48;118.99
75217;HTU21D;63800;51.972;5.682;2023-09-07T09:12:34;22.64;118.99
75217;HTU21D;63800;51.972;5.682;2023-09-07T09:15:00;22.66;118.99
75217;HTU21D;63800;51.972;5.682;2023-09-07T09:17:29;22.62;118.99
75217;HTU21D;63800;51.972;5.682;2023-09-07T09:19:55;22.77;118.99
75217;HTU21D;63800;51.972;5.682;2023-09-07T09:22:21;22.90;118.99
75217;HTU21D;63800;51.972;5.682;2023-09-07T09:24:48;22.94;118.99
75217;HTU21D;63800;51.972;5.682;2023-09-07T09:27:13;23.02;118.99
75217;HTU21D;63800;51.972;5.682;2023-09-07T09:29:39;23.14;118.99
75217;HTU21D;63800;51.972;5.682;2023-09-07T09:32:06;23.20;118.99
75217;HTU21D;63800;51.972;5.682;2023-09-07T09:34:37;23.23;118.99
75217;HTU21D;63800;51.972;5.682;2023-09-07T09:37:03;23.32;118.99
75217;HTU21D;63800;51.972;5.682;2023-09-07T09:39:29;23.53;118.99
75217;HTU21D;63800;51.972;5.682;2023-09-07T09:41:55;23.72;118.99
75217;HTU21D;63800;51.972;5.682;2023-09-07T09:44:22;23.75;118.99
75217;HTU21D;63800;51.972;5.682;2023-09-07T09:46:52;23.92;118.99
75217;HTU21D;63800;51.972;5.682;2023-09-07T09:49:20;24.08;118.99
75217;HTU21D;63800;51.972;5.682;2023-09-07T09:51:48;24.30;118.99
75217;HTU21D;63800;51.972;5.682;2023-09-07T09:54:13;24.38;118.99
75217;HTU21D;63800;51.972;5.682;2023-09-07T09:56:41;24.50;118.99
75217;HTU21D;63800;51.972;5.682;2023-09-07T09:59:06;24.63;118.99
75217;HTU21D;63800;51.972;5.682;2023-09-07T10:01:39;24.83;118.99
75217;HTU21D;63800;51.972;5.682;2023-09-07T10:04:08;25.00;118.99
75217;HTU21D;63800;51.972;5.682;2023-09-07T10:06:34;25.22;118.99
75217;HTU21D;63800;51.972;5.682;2023-09-07T10:09:06;25.33;118.99
75217;HTU21D;63800;51.972;5.682;2023-09-07T10:11:33;25.48;118.99
75217;HTU21D;63800;51.972;5.682;2023-09-07T10:14:00;25.71;118.99
75217;HTU21D;63800;51.972;5.682;2023-09-07T10:16:26;25.97;118.99
75217;HTU21D;63800;51.972;5.682;2023-09-07T10:18:54;26.15;118.99
75217;HTU21D;63800;51.972;5.682;2023-09-07T10:21:23;26.36;118.99
75217;HTU21D;63800;51.972;5.682;2023-09-07T10:23:51;26.49;118.99
75217;HTU21D;63800;51.972;5.682;2023-09-07T10:26:17;26.63;118.99
75217;HTU21D;63800;51.972;5.682;2023-09-07T10:28:44;26.69;118.99
75217;HTU21D;63800;51.972;5.682;2023-09-07T10:31:17;27.05;118.99
75217;HTU21D;63800;51.972;5.682;2023-09-07T10:33:43;27.23;118.99
75217;HTU21D;63800;51.972;5.682;2023-09-07T10:36:28;27.72;118.99
75217;HTU21D;63800;51.972;5.682;2023-09-07T10:38:56;28.44;118.99
75217;HTU21D;63800;51.972;5.682;2023-09-07T10:41:22;29.03;118.99
75217;HTU21D;63800;51.972;5.682;2023-09-07T10:43:54;29.39;118.99
75217;HTU21D;63800;51.972;5.682;2023-09-07T10:46:23;30.09;118.99
75217;HTU21D;63800;51.972;5.682;2023-09-07T10:48:52;30.22;118.99
75217;HTU21D;63800;51.972;5.682;2023-09-07T10:51:19;30.42;118.99
75217;HTU21D;63800;51.972;5.682;2023-09-07T10:53:45;30.79;114.54
75217;HTU21D;63800;51.972;5.682;2023-09-07T10:56:11;30.78;118.99
75217;HTU21D;63800;51.972;5.682;2023-09-07T10:58:37;31.53;116.60
75217;HTU21D;63800;51.972;5.682;2023-09-07T11:01:08;31.09;118.99
75217;HTU21D;63800;51.972;5.682;2023-09-07T11:03:37;31.53;117.92
75217;HTU21D;63800;51.972;5.682;2023-09-07T11:06:10;31.57;110.28
75217;HTU21D;63800;51.972;5.682;2023-09-07T11:08:37;31.79;110.71
75217;HTU21D;63800;51.972;5.682;2023-09-07T11:11:03;32.03;114.90
75217;HTU21D;63800;51.972;5.682;2023-09-07T11:13:29;32.77;111.45
75217;HTU21D;63800;51.972;5.682;2023-09-07T11:15:56;32.18;114.94
75217;HTU21D;63800;51.972;5.682;2023-09-07T11:18:22;32.61;94.05
75217;HTU21D;63800;51.972;5.682;2023-09-07T11:20:48;32.45;88.05
75217;HTU21D;63800;51.972;5.682;2023-09-07T11:23:14;32.84;82.38
75217;HTU21D;63800;51.972;5.682;2023-09-07T11:25:40;32.83;95.13
75217;HTU21D;63800;51.972;5.682;2023-09-07T11:28:06;33.17;92.82
75217;HTU21D;63800;51.972;5.682;2023-09-07T11:30:35;32.96;94.42
75217;HTU21D;63800;51.972;5.682;2023-09-07T11:33:05;32.90;100.19
75217;HTU21D;63800;51.972;5.682;2023-09-07T11:35:31;33.59;80.93
75217;HTU21D;63800;51.972;5.682;2023-09-07T11:37:58;33.30;76.97
75217;HTU21D;63800;51.972;5.682;2023-09-07T11:40:24;33.48;77.50
75217;HTU21D;63800;51.972;5.682;2023-09-07T11:42:49;33.75;76.47
75217;HTU21D;63800;51.972;5.682;2023-09-07T11:45:15;33.99;71.74
75217;HTU21D;63800;51.972;5.682;2023-09-07T11:47:40;34.15;78.14
75217;HTU21D;63800;51.972;5.682;2023-09-07T11:50:06;34.17;76.47
75217;HTU21D;63800;51.972;5.682;2023-09-07T11:52:32;34.42;78.30
75217;HTU21D;63800;51.972;5.682;2023-09-07T11:54:57;33.92;74.40
75217;HTU21D;63800;51.972;5.682;2023-09-07T11:57:23;33.53;78.64
75217;HTU21D;63800;51.972;5.682;2023-09-07T11:59:48;33.82;78.85
75217;HTU21D;63800;51.972;5.682;2023-09-07T12:02:14;34.23;73.72
75217;HTU21D;63800;51.972;5.682;2023-09-07T12:04:40;33.23;90.65
75217;HTU21D;63800;51.972;5.682;2023-09-07T12:07:06;34.02;76.63
75217;HTU21D;63800;51.972;5.682;2023-09-07T12:09:31;33.75;84.21
75217;HTU21D;63800;51.972;5.682;2023-09-07T12:11:57;33.90;83.29
75217;HTU21D;63800;51.972;5.682;2023-09-07T12:14:23;34.41;78.20
75217;HTU21D;63800;51.972;5.682;2023-09-07T12:16:48;34.04;77.53
75217;HTU21D;63800;51.972;5.682;2023-09-07T12:19:14;33.53;88.07
75217;HTU21D;63800;51.972;5.682;2023-09-07T12:21:39;33.31;93.02
75217;HTU21D;63800;51.972;5.682;2023-09-07T12:24:06;33.85;80.83
75217;HTU21D;63800;51.972;5.682;2023-09-07T12:26:32;34.25;77.91
75217;HTU21D;63800;51.972;5.682;2023-09-07T12:28:57;33.76;85.13
75217;HTU21D;63800;51.972;5.682;2023-09-07T12:31:23;33.55;73.66
75217;HTU21D;63800;51.972;5.682;2023-09-07T12:33:48;33.53;86.09
75217;HTU21D;63800;51.972;5.682;2023-09-07T12:36:14;33.57;84.29
75217;HTU21D;63800;51.972;5.682;2023-09-07T12:38:39;32.89;82.55
75217;HTU21D;63800;51.972;5.682;2023-09-07T12:41:05;33.12;101.33
75217;HTU21D;63800;51.972;5.682;2023-09-07T12:43:30;32.84;92.35
75217;HTU21D;63800;51.972;5.682;2023-09-07T12:45:57;32.70;79.24
75217;HTU21D;63800;51.972;5.682;2023-09-07T12:48:24;32.59;95.30
75217;HTU21D;63800;51.972;5.682;2023-09-07T12:50:49;33.50;80.15
75217;HTU21D;63800;51.972;5.682;2023-09-07T12:53:14;33.49;81.71
75217;HTU21D;63800;51.972;5.682;2023-09-07T12:55:40;33.13;94.04
75217;HTU21D;63800;51.972;5.682;2023-09-07T12:58:06;33.35;90.49
75217;HTU21D;63800;51.972;5.682;2023-09-07T13:00:31;33.03;86.69
75217;HTU21D;63800;51.972;5.682;2023-09-07T13:02:56;32.89;84.57
75217;HTU21D;63800;51.972;5.682;2023-09-07T13:05:22;32.32;109.80
75217;HTU21D;63800;51.972;5.682;2023-09-07T13:07:48;33.11;90.76
75217;HTU21D;63800;51.972;5.682;2023-09-07T13:10:13;33.52;75.67
75217;HTU21D;63800;51.972;5.682;2023-09-07T13:12:40;33.90;72.32
75217;HTU21D;63800;51.972;5.682;2023-09-07T13:15:06;33.20;78.08
75217;HTU21D;63800;51.972;5.682;2023-09-07T13:17:32;33.95;71.97
75217;HTU21D;63800;51.972;5.682;2023-09-07T13:19:57;33.79;75.17
75217;HTU21D;63800;51.972;5.682;2023-09-07T13:22:23;33.85;77.56
75217;HTU21D;63800;51.972;5.682;2023-09-07T13:24:48;33.48;78.82
75217;HTU21D;63800;51.972;5.682;2023-09-07T13:27:15;33.23;98.05
75217;HTU21D;63800;51.972;5.682;2023-09-07T13:29:40;33.59;78.82
75217;HTU21D;63800;51.972;5.682;2023-09-07T13:32:06;33.36;90.69
75217;HTU21D;63800;51.972;5.682;2023-09-07T13:34:31;33.08;88.99
75217;HTU21D;63800;51.972;5.682;2023-09-07T13:36:57;33.03;89.08
75217;HTU21D;63800;51.972;5.682;2023-09-07T13:39:23;32.87;79.26
75217;HTU21D;63800;51.972;5.682;2023-09-07T13:41:48;33.00;84.84
75217;HTU21D;63800;51.972;5.682;2023-09-07T13:44:14;33.26;74.99
75217;HTU21D;63800;51.972;5.682;2023-09-07T13:46:40;32.59;95.97
75217;HTU21D;63800;51.972;5.682;2023-09-07T13:49:05;32.32;95.68
75217;HTU21D;63800;51.972;5.682;2023-09-07T13:51:31;32.32;96.26
75217;HTU21D;63800;51.972;5.682;2023-09-07T13:54:07;32.48;80.77
75217;HTU21D;63800;51.972;5.682;2023-09-07T13:56:33;32.54;76.60
75217;HTU21D;63800;51.972;5.682;2023-09-07T13:58:59;32.50;83.13
75217;HTU21D;63800;51.972;5.682;2023-09-07T14:01:24;32.43;89.43
75217;HTU21D;63800;51.972;5.682;2023-09-07T14:03:50;31.93;96.78
75217;HTU21D;63800;51.972;5.682;2023-09-07T14:06:16;31.88;105.13
75217;HTU21D;63800;51.972;5.682;2023-09-07T14:08:43;32.08;96.18
75217;HTU21D;63800;51.972;5.682;2023-09-07T14:11:09;31.64;98.30
75217;HTU21D;63800;51.972;5.682;2023-09-07T14:13:35;32.26;82.21
75217;HTU21D;63800;51.972;5.682;2023-09-07T14:16:00;32.12;103.96
75217;HTU21D;63800;51.972;5.682;2023-09-07T14:18:26;31.89;76.32
75217;HTU21D;63800;51.972;5.682;2023-09-07T14:20:51;31.57;104.58
75217;HTU21D;63800;51.972;5.682;2023-09-07T14:23:17;31.59;96.58
75217;HTU21D;63800;51.972;5.682;2023-09-07T14:25:46;31.60;93.84
75217;HTU21D;63800;51.972;5.682;2023-09-07T14:28:12;31.73;95.19
75217;HTU21D;63800;51.972;5.682;2023-09-07T14:30:38;31.52;92.03
75217;HTU21D;63800;51.972;5.682;2023-09-07T14:33:03;31.83;99.89
75217;HTU21D;63800;51.972;5.682;2023-09-07T14:35:30;32.08;91.79
75217;HTU21D;63800;51.972;5.682;2023-09-07T14:37:55;31.98;97.37
75217;HTU21D;63800;51.972;5.682;2023-09-07T14:40:21;31.33;100.61
75217;HTU21D;63800;51.972;5.682;2023-09-07T14:42:49;31.52;99.61
75217;HTU21D;63800;51.972;5.682;2023-09-07T14:45:16;31.55;85.84
75217;HTU21D;63800;51.972;5.682;2023-09-07T14:47:42;31.39;97.13
75217;HTU21D;63800;51.972;5.682;2023-09-07T14:50:08;31.25;98.75
75217;HTU21D;63800;51.972;5.682;2023-09-07T14:52:34;31.08;95.22
75217;HTU21D;63800;51.972;5.682;2023-09-07T14:55:06;31.10;101.11
75217;HTU21D;63800;51.972;5.682;2023-09-07T14:57:32;31.23;97.48
75217;HTU21D;63800;51.972;5.682;2023-09-07T14:59:59;31.38;97.32